EZY57AF EGKK-LFPG
Flight info
| Callsign | EZY57AF |
|---|---|
| Flight time | N/A |
| Altitude | 19000 |
| Route | SFD M605 HARDY UM605 BIBAX |
| Aircraft | A319/M-SDE3FGHIRWY/LB1 |
Departure
| Time | N/A |
|---|---|
| Airport | London Gatwick Airport (EGKK) |
Arrival
| Time | 2026-05-05 01:53 |
|---|---|
| Airport | Charles de Gaulle International Airport (LFPG) |
| Time | Latitude | Longitude | Altitude | Speed | Heading |
|---|---|---|---|---|---|
| 2026-05-05 01:38 | 49.48480 | 1.43498 | 15470 ft | 332 kts | 154° |
| 2026-05-05 01:39 | 49.46397 | 1.45026 | 15018 ft | 330 kts | 154° |
| 2026-05-05 01:39 | 49.44331 | 1.46543 | 14584 ft | 328 kts | 154° |
| 2026-05-05 01:39 | 49.42270 | 1.48053 | 14141 ft | 327 kts | 153° |
| 2026-05-05 01:39 | 49.40225 | 1.49554 | 13692 ft | 325 kts | 153° |
| 2026-05-05 01:40 | 49.38188 | 1.51053 | 13213 ft | 323 kts | 153° |
| 2026-05-05 01:40 | 49.36172 | 1.52536 | 12771 ft | 320 kts | 153° |
| 2026-05-05 01:40 | 49.34213 | 1.54041 | 12329 ft | 317 kts | 148° |
| 2026-05-05 01:40 | 49.32477 | 1.56077 | 11871 ft | 313 kts | 135° |
| 2026-05-05 01:41 | 49.31108 | 1.58642 | 11421 ft | 310 kts | 122° |
| 2026-05-05 01:41 | 49.30154 | 1.61601 | 10944 ft | 309 kts | 109° |
| 2026-05-05 01:41 | 49.29667 | 1.64796 | 10475 ft | 308 kts | 97° |
| 2026-05-05 01:41 | 49.29521 | 1.68045 | 10185 ft | 301 kts | 94° |
| 2026-05-05 01:42 | 49.29387 | 1.71176 | 10058 ft | 288 kts | 94° |
| 2026-05-05 01:42 | 49.29215 | 1.74187 | 9899 ft | 280 kts | 100° |
| 2026-05-05 01:42 | 49.28656 | 1.77040 | 9803 ft | 281 kts | 114° |
| 2026-05-05 01:42 | 49.27736 | 1.79671 | 9584 ft | 280 kts | 119° |
| 2026-05-05 01:43 | 49.26778 | 1.82263 | 9358 ft | 279 kts | 119° |
| 2026-05-05 01:43 | 49.25824 | 1.84842 | 9148 ft | 277 kts | 119° |
| 2026-05-05 01:43 | 49.24875 | 1.87407 | 8931 ft | 277 kts | 119° |
| 2026-05-05 01:43 | 49.23930 | 1.89976 | 8718 ft | 276 kts | 119° |
| 2026-05-05 01:44 | 49.22989 | 1.92534 | 8508 ft | 276 kts | 119° |
| 2026-05-05 01:44 | 49.22045 | 1.95092 | 8287 ft | 275 kts | 119° |
| 2026-05-05 01:44 | 49.21105 | 1.97627 | 8066 ft | 274 kts | 118° |
| 2026-05-05 01:44 | 49.20167 | 2.00151 | 7844 ft | 272 kts | 118° |
| 2026-05-05 01:45 | 49.19236 | 2.02661 | 7641 ft | 271 kts | 118° |
| 2026-05-05 01:45 | 49.18320 | 2.05135 | 7433 ft | 271 kts | 118° |
| 2026-05-05 01:45 | 49.17394 | 2.07634 | 7215 ft | 271 kts | 119° |
| 2026-05-05 01:45 | 49.16269 | 2.09924 | 7010 ft | 271 kts | 134° |
| 2026-05-05 01:46 | 49.14752 | 2.11652 | 6655 ft | 275 kts | 150° |
| 2026-05-05 01:46 | 49.12929 | 2.12646 | 6190 ft | 279 kts | 165° |
| 2026-05-05 01:46 | 49.11026 | 2.13364 | 5527 ft | 285 kts | 164° |
| 2026-05-05 01:46 | 49.09123 | 2.14105 | 5167 ft | 274 kts | 163° |
| 2026-05-05 01:47 | 49.07344 | 2.14806 | 5082 ft | 254 kts | 163° |
| 2026-05-05 01:47 | 49.05677 | 2.15466 | 4979 ft | 242 kts | 163° |
| 2026-05-05 01:47 | 49.04079 | 2.16103 | 4870 ft | 232 kts | 163° |
| 2026-05-05 01:47 | 49.02551 | 2.16718 | 4765 ft | 222 kts | 162° |
| 2026-05-05 01:48 | 49.01268 | 2.17824 | 4673 ft | 208 kts | 129° |
| 2026-05-05 01:48 | 49.00693 | 2.19776 | 4481 ft | 203 kts | 92° |
| 2026-05-05 01:48 | 49.00857 | 2.21878 | 4303 ft | 201 kts | 81° |
| 2026-05-05 01:48 | 49.00940 | 2.23999 | 4073 ft | 201 kts | 86° |
| 2026-05-05 01:49 | 49.01025 | 2.26119 | 3812 ft | 201 kts | 85° |
| 2026-05-05 01:49 | 49.01135 | 2.28235 | 3550 ft | 200 kts | 84° |
| 2026-05-05 01:49 | 49.01252 | 2.30356 | 3275 ft | 202 kts | 84° |
| 2026-05-05 01:49 | 49.01370 | 2.32477 | 3003 ft | 200 kts | 84° |
| 2026-05-05 01:50 | 49.01485 | 2.34541 | 2784 ft | 188 kts | 84° |
| 2026-05-05 01:50 | 49.01593 | 2.36474 | 2501 ft | 177 kts | 84° |
| 2026-05-05 01:50 | 49.01692 | 2.38278 | 2270 ft | 164 kts | 83° |
| 2026-05-05 01:50 | 49.01784 | 2.39943 | 2066 ft | 148 kts | 84° |
| 2026-05-05 01:51 | 49.01865 | 2.41409 | 1869 ft | 132 kts | 83° |
| 2026-05-05 01:51 | 49.01939 | 2.42754 | 1698 ft | 124 kts | 83° |
| 2026-05-05 01:51 | 49.02010 | 2.44041 | 1533 ft | 121 kts | 83° |
| 2026-05-05 01:51 | 49.02077 | 2.45322 | 1336 ft | 121 kts | 84° |
| 2026-05-05 01:52 | 49.02143 | 2.46587 | 1183 ft | 122 kts | 83° |
| 2026-05-05 01:52 | 49.02215 | 2.47888 | 1002 ft | 124 kts | 84° |
| 2026-05-05 01:52 | 49.02292 | 2.49193 | 843 ft | 124 kts | 83° |
| 2026-05-05 01:52 | 49.02350 | 2.50500 | 648 ft | 123 kts | 84° |
| 2026-05-05 01:53 | 49.02436 | 2.51797 | 475 ft | 123 kts | 82° |
| 2026-05-05 01:53 | 49.02504 | 2.53083 | 356 ft | 118 kts | 85° |
| 2026-05-05 01:53 | 49.02557 | 2.53983 | 355 ft | 42 kts | 86° |
| 2026-05-05 01:53 | 49.02568 | 2.54210 | 354 ft | 21 kts | 85° |
| 2026-05-05 01:54 | 49.02567 | 2.54436 | 354 ft | 22 kts | 100° |
| 2026-05-05 01:54 | 49.02530 | 2.54658 | 357 ft | 20 kts | 106° |
| 2026-05-05 01:54 | 49.02491 | 2.54868 | 359 ft | 21 kts | 105° |
| 2026-05-05 01:54 | 49.02457 | 2.55059 | 356 ft | 17 kts | 105° |
| 2026-05-05 01:55 | 49.02448 | 2.55221 | 355 ft | 16 kts | 83° |
| 2026-05-05 01:55 | 49.02458 | 2.55390 | 355 ft | 15 kts | 85° |
| 2026-05-05 01:55 | 49.02458 | 2.55551 | 355 ft | 13 kts | 107° |
| 2026-05-05 01:55 | 49.02381 | 2.55617 | 355 ft | 14 kts | 178° |
| 2026-05-05 01:56 | 49.02281 | 2.55626 | 356 ft | 15 kts | 176° |
| 2026-05-05 01:56 | 49.02177 | 2.55638 | 364 ft | 15 kts | 175° |
| 2026-05-05 01:56 | 49.02104 | 2.55647 | 355 ft | 8 kts | 175° |
| 2026-05-05 01:56 | 49.02048 | 2.55654 | 357 ft | 9 kts | 175° |
| 2026-05-05 01:57 | 49.01983 | 2.55662 | 355 ft | 10 kts | 175° |
| 2026-05-05 01:57 | 49.01910 | 2.55656 | 355 ft | 11 kts | 207° |
| 2026-05-05 01:57 | 49.01886 | 2.55547 | 358 ft | 12 kts | 265° |
| 2026-05-05 01:57 | 49.01880 | 2.55416 | 355 ft | 13 kts | 265° |
| 2026-05-05 01:58 | 49.01872 | 2.55272 | 357 ft | 14 kts | 265° |
| 2026-05-05 01:58 | 49.01862 | 2.55125 | 355 ft | 6 kts | 247° |
| 2026-05-05 01:58 | 49.01823 | 2.55127 | 355 ft | 7 kts | 169° |
| 2026-05-05 01:58 | 49.01773 | 2.55139 | 362 ft | 8 kts | 171° |
| 2026-05-05 01:59 | 49.01714 | 2.55151 | 355 ft | 9 kts | 174° |
| 2026-05-05 01:59 | 49.01652 | 2.55157 | 355 ft | 8 kts | 177° |
| 2026-05-05 01:59 | 49.01602 | 2.55161 | 355 ft | 6 kts | 178° |
| 2026-05-05 01:59 | 49.01567 | 2.55163 | 355 ft | 6 kts | 178° |
| 2026-05-05 02:00 | 49.01514 | 2.55167 | 360 ft | 8 kts | 176° |
| 2026-05-05 02:00 | 49.01456 | 2.55178 | 355 ft | 9 kts | 172° |
| 2026-05-05 02:00 | 49.01396 | 2.55197 | 355 ft | 9 kts | 166° |
| 2026-05-05 02:00 | 49.01333 | 2.55219 | 355 ft | 10 kts | 170° |
| 2026-05-05 02:01 | 49.01267 | 2.55203 | 357 ft | 10 kts | 202° |
| 2026-05-05 02:01 | 49.01200 | 2.55159 | 358 ft | 11 kts | 193° |
| 2026-05-05 02:01 | 49.01128 | 2.55171 | 357 ft | 11 kts | 164° |
| 2026-05-05 02:01 | 49.01055 | 2.55203 | 355 ft | 11 kts | 164° |
| 2026-05-05 02:02 | 49.00979 | 2.55236 | 358 ft | 12 kts | 165° |
| 2026-05-05 02:02 | 49.00898 | 2.55266 | 357 ft | 12 kts | 167° |
| 2026-05-05 02:02 | 49.00817 | 2.55306 | 361 ft | 12 kts | 160° |
| 2026-05-05 02:02 | 49.00733 | 2.55347 | 361 ft | 13 kts | 163° |
| 2026-05-05 02:03 | 49.00646 | 2.55384 | 363 ft | 13 kts | 166° |
| 2026-05-05 02:03 | 49.00554 | 2.55421 | 355 ft | 14 kts | 164° |
| 2026-05-05 02:03 | 49.00483 | 2.55452 | 357 ft | 10 kts | 165° |
| 2026-05-05 02:03 | 49.00435 | 2.55510 | 356 ft | 9 kts | 92° |
| 2026-05-05 02:04 | 49.00422 | 2.55597 | 360 ft | 9 kts | 143° |
| 2026-05-05 02:04 | 49.00369 | 2.55559 | 357 ft | 10 kts | 245° |
| 2026-05-05 02:04 | 49.00405 | 2.55489 | 363 ft | 10 kts | 349° |
| 2026-05-05 02:04 | 49.00477 | 2.55470 | 361 ft | 11 kts | 4° |
| 2026-05-05 02:05 | 49.00542 | 2.55527 | 355 ft | 11 kts | 49° |
| 2026-05-05 02:05 | 49.00558 | 2.55644 | 355 ft | 12 kts | 89° |
| 2026-05-05 02:05 | 49.00561 | 2.55766 | 362 ft | 11 kts | 88° |
| 2026-05-05 02:05 | 49.00565 | 2.55888 | 361 ft | 12 kts | 86° |
| 2026-05-05 02:06 | 49.00570 | 2.56019 | 358 ft | 9 kts | 76° |
| 2026-05-05 02:06 | 49.00568 | 2.56077 | 355 ft | 6 kts | 156° |
| 2026-05-05 02:06 | 49.00535 | 2.56088 | 355 ft | 4 kts | 165° |
| 2026-05-05 02:06 | 49.00531 | 2.56090 | 355 ft | 1 kts | 162° |
| 2026-05-05 02:07 | 49.00525 | 2.56093 | 355 ft | 0 kts | 162° |